createdAt,value
2023-01-19T00:01:35.838Z,17.88
2023-01-19T00:04:07.588Z,18.60
2023-01-19T00:06:37.450Z,19.00
2023-01-19T00:09:10.092Z,17.48
2023-01-19T00:11:38.334Z,19.67
2023-01-19T00:14:07.577Z,20.08
2023-01-19T00:16:37.615Z,19.02
2023-01-19T00:19:10.650Z,21.15
2023-01-19T00:21:49.586Z,18.92
2023-01-19T00:24:19.661Z,20.52
2023-01-19T00:26:49.207Z,18.63
2023-01-19T00:29:18.262Z,21.40
2023-01-19T00:31:46.614Z,19.05
2023-01-19T00:34:23.643Z,19.90
2023-01-19T00:37:03.936Z,18.75
2023-01-19T00:39:31.767Z,20.50
2023-01-19T00:42:17.958Z,21.35
2023-01-19T00:47:28.297Z,20.98
2023-01-19T00:50:01.115Z,22.42
2023-01-19T00:52:29.280Z,25.58
2023-01-19T00:54:57.986Z,24.45
2023-01-19T00:57:38.827Z,19.80
2023-01-19T01:00:19.748Z,20.77
2023-01-19T01:02:53.447Z,21.20
2023-01-19T01:05:25.414Z,19.70
2023-01-19T01:08:04.700Z,20.27
2023-01-19T01:10:32.879Z,22.67
2023-01-19T01:13:20.355Z,20.02
2023-01-19T01:15:57.951Z,22.67
2023-01-19T01:18:32.975Z,19.52
2023-01-19T01:21:09.355Z,22.92
2023-01-19T01:23:51.640Z,24.65
2023-01-19T01:26:26.366Z,18.92
2023-01-19T01:28:57.577Z,21.95
2023-01-19T01:31:28.198Z,16.65
2023-01-19T01:33:57.353Z,20.20
2023-01-19T01:36:28.235Z,20.92
2023-01-19T01:38:55.939Z,19.27
2023-01-19T01:41:27.442Z,18.98
2023-01-19T01:44:01.887Z,18.73
2023-01-19T01:46:33.059Z,18.58
2023-01-19T01:49:15.643Z,19.33
2023-01-19T01:51:57.482Z,17.77
2023-01-19T01:54:33.409Z,22.05
2023-01-19T01:57:15.713Z,21.10
2023-01-19T01:59:52.388Z,24.00
2023-01-19T02:02:46.411Z,16.15
2023-01-19T02:05:37.782Z,16.45
2023-01-19T02:08:37.628Z,20.13
2023-01-19T02:11:25.049Z,19.33
2023-01-19T02:13:53.650Z,20.27
2023-01-19T02:16:23.246Z,20.75
2023-01-19T02:18:51.494Z,19.42
2023-01-19T02:21:49.092Z,17.90
2023-01-19T02:24:17.545Z,32.38
2023-01-19T02:26:48.321Z,23.00
2023-01-19T02:29:20.098Z,19.65
2023-01-19T02:31:49.148Z,21.88
2023-01-19T02:34:20.981Z,20.95
2023-01-19T02:37:16.984Z,19.50
2023-01-19T02:39:58.506Z,19.27
2023-01-19T02:42:36.303Z,22.77
2023-01-19T02:45:06.793Z,20.98
2023-01-19T02:47:49.329Z,19.20
2023-01-19T02:50:36.746Z,21.52
2023-01-19T02:53:38.112Z,22.70
2023-01-19T02:56:43.861Z,21.67
2023-01-19T02:59:55.767Z,26.83
2023-01-19T03:03:18.657Z,22.42
2023-01-19T03:06:13.928Z,25.75
2023-01-19T03:09:17.938Z,22.25
2023-01-19T03:12:16.602Z,23.67
2023-01-19T03:14:48.189Z,21.35
2023-01-19T03:17:19.076Z,24.67
2023-01-19T03:19:51.324Z,27.13
2023-01-19T03:22:31.035Z,23.73
2023-01-19T03:25:03.838Z,24.42
2023-01-19T03:27:40.967Z,21.80
2023-01-19T03:30:15.784Z,25.85
2023-01-19T03:33:36.634Z,21.95
2023-01-19T03:36:14.031Z,21.53
2023-01-19T03:38:45.318Z,19.10
2023-01-19T03:41:20.219Z,19.98
2023-01-19T03:43:52.194Z,20.98
2023-01-19T03:46:20.567Z,20.73
2023-01-19T03:48:49.878Z,20.90
2023-01-19T03:51:20.219Z,27.85
2023-01-19T03:53:52.045Z,18.08
2023-01-19T03:56:25.554Z,19.77
2023-01-19T03:58:56.166Z,17.35
2023-01-19T04:01:26.253Z,19.98
2023-01-19T04:03:54.266Z,15.95
2023-01-19T04:06:22.463Z,17.48
2023-01-19T04:08:51.401Z,14.55
2023-01-19T04:11:19.420Z,14.60
2023-01-19T04:13:47.119Z,16.48
2023-01-19T04:16:20.161Z,17.25
2023-01-19T04:18:51.094Z,16.65
2023-01-19T04:21:20.355Z,15.52
2023-01-19T04:23:52.386Z,13.48
2023-01-19T04:26:21.042Z,13.95
2023-01-19T04:28:48.643Z,15.38
2023-01-19T04:31:21.306Z,13.02
2023-01-19T04:33:50.490Z,13.82
2023-01-19T04:36:24.968Z,12.50
2023-01-19T04:38:52.738Z,10.80
2023-01-19T04:41:21.385Z,13.50
2023-01-19T04:43:49.173Z,12.13
2023-01-19T04:46:17.118Z,13.15
2023-01-19T04:48:46.292Z,9.13
2023-01-19T04:51:15.865Z,7.38
2023-01-19T04:53:43.954Z,7.50
2023-01-19T04:56:12.436Z,8.27
2023-01-19T04:58:41.310Z,6.28
2023-01-19T05:01:17.433Z,6.40
2023-01-19T05:03:45.204Z,5.82
2023-01-19T05:06:13.337Z,8.82
2023-01-19T05:08:41.140Z,4.85
2023-01-19T05:11:09.371Z,5.60
2023-01-19T05:13:38.077Z,5.97
2023-01-19T05:16:06.767Z,8.75
2023-01-19T05:18:37.204Z,7.30
2023-01-19T05:21:05.352Z,4.63
2023-01-19T05:23:34.486Z,5.10
2023-01-19T05:26:03.031Z,5.68
2023-01-19T05:28:33.102Z,5.68
2023-01-19T05:31:00.977Z,7.53
2023-01-19T05:33:28.660Z,5.25
2023-01-19T05:35:56.649Z,6.10
2023-01-19T05:38:34.685Z,5.93
2023-01-19T05:41:05.434Z,8.15
2023-01-19T05:43:33.081Z,6.88
2023-01-19T05:46:00.756Z,8.45
2023-01-19T05:48:29.663Z,8.00
2023-01-19T05:51:01.425Z,8.75
2023-01-19T05:53:29.614Z,8.23
2023-01-19T05:56:06.137Z,8.32
2023-01-19T05:58:40.587Z,6.55
2023-01-19T06:01:15.793Z,8.95
2023-01-19T06:03:48.715Z,10.43
2023-01-19T06:06:17.572Z,8.55
2023-01-19T06:08:53.791Z,9.43
2023-01-19T06:11:22.232Z,9.55
2023-01-19T06:13:51.696Z,10.77
2023-01-19T06:16:20.867Z,12.00
2023-01-19T06:18:48.385Z,10.88
2023-01-19T06:21:17.244Z,10.40
2023-01-19T06:23:44.796Z,12.18
2023-01-19T06:26:12.670Z,11.60
2023-01-19T06:28:40.329Z,12.63
2023-01-19T06:31:07.934Z,16.50
2023-01-19T06:33:36.767Z,12.93
2023-01-19T06:36:04.570Z,13.10
2023-01-19T06:38:33.006Z,14.70
2023-01-19T06:41:04.865Z,10.18
2023-01-19T06:43:32.512Z,15.38
2023-01-19T06:46:02.350Z,11.48
2023-01-19T06:48:30.051Z,13.98
2023-01-19T06:50:59.826Z,15.00
2023-01-19T06:53:30.202Z,14.55
2023-01-19T06:56:04.971Z,15.93
2023-01-19T06:58:35.512Z,20.83
2023-01-19T07:01:06.221Z,18.85
2023-01-19T07:03:38.526Z,19.48
2023-01-19T07:06:09.536Z,18.27
2023-01-19T07:08:37.879Z,18.00
2023-01-19T07:11:25.246Z,21.27
2023-01-19T07:13:56.581Z,26.23
2023-01-19T07:16:24.345Z,25.85
2023-01-19T07:18:52.500Z,25.58
2023-01-19T07:21:21.350Z,27.77
2023-01-19T07:23:51.440Z,25.42
2023-01-19T07:26:21.456Z,26.65
2023-01-19T07:28:49.834Z,29.13
2023-01-19T07:31:19.585Z,27.63
2023-01-19T07:33:50.390Z,31.13
2023-01-19T07:36:20.424Z,31.63
2023-01-19T07:38:49.864Z,30.48
2023-01-19T07:41:18.654Z,33.33
2023-01-19T07:43:51.318Z,30.85
2023-01-19T07:46:19.235Z,32.95
2023-01-19T07:48:55.209Z,47.70
2023-01-19T07:51:23.587Z,29.83
2023-01-19T07:53:54.393Z,38.08
2023-01-19T07:56:32.736Z,37.40
2023-01-19T07:59:04.426Z,39.10
2023-01-19T08:01:32.092Z,31.63
2023-01-19T08:03:59.901Z,41.55
2023-01-19T08:06:37.936Z,37.75
2023-01-19T08:09:07.063Z,34.83
2023-01-19T08:11:34.699Z,38.20
2023-01-19T08:14:03.362Z,34.00
2023-01-19T08:16:32.987Z,37.97
2023-01-19T08:19:03.344Z,38.35
2023-01-19T08:21:33.297Z,36.58
2023-01-19T08:24:20.871Z,39.85
2023-01-19T08:26:49.704Z,36.05
2023-01-19T08:29:17.408Z,39.38
2023-01-19T08:31:45.607Z,39.95
2023-01-19T08:34:13.663Z,37.42
2023-01-19T08:36:41.712Z,34.47
2023-01-19T08:39:14.808Z,33.50
2023-01-19T08:41:42.892Z,33.38
2023-01-19T08:44:10.565Z,33.25
2023-01-19T08:46:46.767Z,34.75
2023-01-19T08:49:14.725Z,33.35
2023-01-19T08:51:46.932Z,33.40
2023-01-19T08:54:18.576Z,31.08
2023-01-19T08:56:46.438Z,26.42
2023-01-19T08:59:14.290Z,37.78
2023-01-19T09:01:42.423Z,24.80
2023-01-19T09:04:10.135Z,26.50
2023-01-19T09:06:37.749Z,29.10
2023-01-19T09:09:05.741Z,34.03
2023-01-19T09:11:35.000Z,30.48
2023-01-19T09:14:05.696Z,42.20
2023-01-19T09:16:36.617Z,37.63
2023-01-19T09:19:08.594Z,38.95
2023-01-19T09:21:39.508Z,41.28
2023-01-19T09:24:09.044Z,50.28
2023-01-19T09:26:40.632Z,50.50
2023-01-19T09:29:09.474Z,42.83
2023-01-19T09:31:38.770Z,52.50
2023-01-19T09:34:06.766Z,52.38
2023-01-19T09:36:40.570Z,47.10
2023-01-19T09:39:11.059Z,48.65
2023-01-19T09:41:47.737Z,51.30
2023-01-19T09:44:32.328Z,49.22
2023-01-19T09:47:16.981Z,51.20
2023-01-19T09:49:53.819Z,53.30
2023-01-19T09:52:22.397Z,52.60
2023-01-19T09:54:58.517Z,52.72
2023-01-19T09:57:30.642Z,62.05
2023-01-19T09:59:59.715Z,55.92
2023-01-19T10:02:46.924Z,51.88
2023-01-19T10:05:56.676Z,57.40
2023-01-19T10:09:09.776Z,54.85
2023-01-19T10:12:10.361Z,63.75
2023-01-19T10:15:17.692Z,56.75
2023-01-19T10:18:03.063Z,58.95
2023-01-19T10:20:40.862Z,59.33
2023-01-19T10:23:36.773Z,55.33
2023-01-19T10:26:28.882Z,46.92
2023-01-19T10:29:07.401Z,48.97
2023-01-19T10:31:38.321Z,46.20
2023-01-19T10:34:18.872Z,46.72
2023-01-19T10:36:53.656Z,46.53
2023-01-19T10:39:21.426Z,39.75
2023-01-19T10:41:53.851Z,36.42
2023-01-19T10:44:36.674Z,30.83
2023-01-19T10:47:17.397Z,36.85
2023-01-19T10:49:50.227Z,34.28
2023-01-19T10:52:29.070Z,29.85
2023-01-19T10:55:01.114Z,32.28
2023-01-19T10:57:39.551Z,32.15
2023-01-19T11:00:41.145Z,27.88
2023-01-19T11:03:31.389Z,27.38
2023-01-19T11:06:40.844Z,30.08
2023-01-19T11:09:25.360Z,23.80
2023-01-19T11:15:02.872Z,22.65
2023-01-19T11:17:36.280Z,19.13
2023-01-19T11:23:05.689Z,19.85
2023-01-19T11:32:12.649Z,19.98
2023-01-19T11:37:41.784Z,15.68
2023-01-19T11:40:31.455Z,17.90
2023-01-19T11:43:13.946Z,14.60
2023-01-19T11:45:53.411Z,18.42
2023-01-19T11:48:39.141Z,20.67
2023-01-19T11:52:03.224Z,19.13
2023-01-19T11:55:20.857Z,16.17
2023-01-19T11:58:04.123Z,18.10
2023-01-19T12:01:08.429Z,15.68
2023-01-19T12:04:00.971Z,17.13
2023-01-19T12:06:59.640Z,20.30
2023-01-19T12:09:49.799Z,13.23
2023-01-19T12:12:37.271Z,18.35
2023-01-19T12:15:50.568Z,19.98
2023-01-19T12:18:53.082Z,14.75
2023-01-19T12:21:24.917Z,21.17
2023-01-19T12:24:33.513Z,16.90
2023-01-19T12:27:56.203Z,15.93
2023-01-19T12:30:28.453Z,13.65
2023-01-19T12:33:29.160Z,17.27
2023-01-19T12:36:15.309Z,16.10
2023-01-19T12:39:04.812Z,16.70
2023-01-19T12:41:39.929Z,17.80
2023-01-19T12:44:19.529Z,15.60
2023-01-19T12:47:07.786Z,15.85
2023-01-19T12:50:16.884Z,16.38
2023-01-19T12:53:26.636Z,18.10
2023-01-19T12:56:09.673Z,12.73
2023-01-19T12:58:47.611Z,16.17
2023-01-19T13:01:45.754Z,17.48
2023-01-19T13:07:28.298Z,13.98
2023-01-19T13:10:01.300Z,14.23
2023-01-19T13:12:36.163Z,11.50
2023-01-19T13:15:37.473Z,15.75
2023-01-19T13:18:10.134Z,14.48
2023-01-19T13:21:01.592Z,14.52
2023-01-19T13:24:15.168Z,14.02
2023-01-19T13:27:07.745Z,14.68
2023-01-19T13:29:41.689Z,12.70
2023-01-19T13:32:18.784Z,14.25
2023-01-19T13:35:02.054Z,14.13
2023-01-19T13:37:44.720Z,15.52
2023-01-19T13:40:34.249Z,14.63
2023-01-19T13:43:03.698Z,13.07
2023-01-19T13:45:41.041Z,14.85
2023-01-19T13:48:31.690Z,12.50
2023-01-19T13:51:26.481Z,17.95
2023-01-19T13:54:09.822Z,14.25
2023-01-19T13:56:40.798Z,19.00
2023-01-19T13:59:14.031Z,11.95
2023-01-19T14:04:36.438Z,16.40
2023-01-19T14:07:26.654Z,13.73
2023-01-19T14:10:14.444Z,13.13
2023-01-19T14:15:44.760Z,16.63
2023-01-19T14:18:38.214Z,15.02
2023-01-19T14:21:25.014Z,18.35
2023-01-19T14:23:57.976Z,17.58
2023-01-19T14:27:02.717Z,16.48
2023-01-19T14:29:35.457Z,19.55
2023-01-19T14:32:25.835Z,17.67
2023-01-19T14:35:04.780Z,17.20
2023-01-19T14:37:49.842Z,17.63
2023-01-19T14:40:40.985Z,18.30
2023-01-19T14:43:30.870Z,18.95
2023-01-19T14:46:40.443Z,20.50
2023-01-19T14:49:40.392Z,22.27
2023-01-19T14:52:30.701Z,20.52
2023-01-19T14:54:59.867Z,20.65
2023-01-19T14:57:29.776Z,25.88
2023-01-19T15:00:02.557Z,19.83
2023-01-19T15:02:42.226Z,21.15
2023-01-19T15:05:14.054Z,23.20
2023-01-19T15:07:50.673Z,25.65
2023-01-19T15:10:38.705Z,23.80
2023-01-19T15:13:08.030Z,35.60
2023-01-19T15:15:43.909Z,27.02
2023-01-19T15:20:49.734Z,28.00
2023-01-19T15:23:29.152Z,27.15
2023-01-19T15:26:13.973Z,29.13
2023-01-19T15:28:52.368Z,27.48
2023-01-19T15:34:29.972Z,25.63
2023-01-19T15:37:01.095Z,28.48
2023-01-19T15:42:29.909Z,28.23
2023-01-19T15:45:02.660Z,31.73
2023-01-19T15:47:35.744Z,30.17
2023-01-19T15:50:09.590Z,27.83
2023-01-19T15:52:40.939Z,30.27
2023-01-19T15:55:17.005Z,28.35
2023-01-19T15:57:53.052Z,32.70
2023-01-19T16:00:25.562Z,28.55
2023-01-19T16:03:05.792Z,31.50
2023-01-19T16:05:43.194Z,29.52
2023-01-19T16:08:15.065Z,31.27
2023-01-19T16:10:48.223Z,34.10
2023-01-19T16:13:32.483Z,34.72
2023-01-19T16:16:39.939Z,30.40
2023-01-19T16:19:14.585Z,33.75
2023-01-19T16:21:53.273Z,31.52
2023-01-19T16:24:46.357Z,26.05
2023-01-19T16:27:30.752Z,33.17
2023-01-19T16:30:13.239Z,33.63
2023-01-19T16:32:53.289Z,28.70
2023-01-19T16:35:23.484Z,33.22
2023-01-19T16:40:47.830Z,33.47
2023-01-19T16:46:19.789Z,28.13
2023-01-19T16:49:07.265Z,31.33
2023-01-19T16:51:48.496Z,29.65
2023-01-19T16:54:30.423Z,32.78
2023-01-19T16:56:59.842Z,28.67
2023-01-19T16:59:31.360Z,28.95
2023-01-19T17:02:24.160Z,27.65
2023-01-19T17:05:03.160Z,28.92
2023-01-19T17:07:36.117Z,26.33
2023-01-19T17:12:51.643Z,32.72
2023-01-19T17:15:42.934Z,32.42
2023-01-19T17:18:15.038Z,33.00
2023-01-19T17:20:48.362Z,31.67
2023-01-19T17:23:33.830Z,28.73
2023-01-19T17:26:16.051Z,32.40
2023-01-19T17:31:37.233Z,30.98
2023-01-19T17:37:05.234Z,34.55
2023-01-19T17:42:43.144Z,31.92
2023-01-19T17:45:39.295Z,41.92
2023-01-19T17:57:19.893Z,35.55
2023-01-19T18:02:48.980Z,40.75
2023-01-19T18:08:35.952Z,38.58
2023-01-19T18:11:08.276Z,33.90
2023-01-19T18:13:48.444Z,35.22
2023-01-19T18:22:23.527Z,35.90
2023-01-19T18:25:05.719Z,35.92
2023-01-19T18:33:29.030Z,38.50
2023-01-19T18:36:17.942Z,40.60
2023-01-19T18:38:55.791Z,40.22
2023-01-19T18:44:36.439Z,41.17
2023-01-19T18:47:37.484Z,44.30
2023-01-19T18:50:07.268Z,39.28
2023-01-19T18:52:48.859Z,42.72
2023-01-19T18:55:38.792Z,44.03
2023-01-19T18:58:21.832Z,40.60
2023-01-19T19:01:00.052Z,35.20
2023-01-19T19:03:37.051Z,39.38
2023-01-19T19:09:20.423Z,47.88
2023-01-19T19:11:58.477Z,38.33
2023-01-19T19:17:27.554Z,41.97
2023-01-19T19:19:55.788Z,42.20
2023-01-19T19:25:14.607Z,41.97
2023-01-19T19:31:27.052Z,38.67
2023-01-19T19:36:51.811Z,38.05
2023-01-19T19:39:22.017Z,45.00
2023-01-19T19:44:39.397Z,38.72
2023-01-19T19:54:11.483Z,41.75
2023-01-19T19:56:44.910Z,36.30
2023-01-19T19:59:22.104Z,37.78
2023-01-19T20:01:58.727Z,37.58
2023-01-19T20:04:33.728Z,43.50
2023-01-19T20:10:06.793Z,44.90
2023-01-19T20:12:48.636Z,38.83
2023-01-19T20:18:13.380Z,47.03
2023-01-19T20:23:52.599Z,34.83
2023-01-19T20:29:33.883Z,40.08
2023-01-19T20:34:50.568Z,40.50
2023-01-19T20:37:29.498Z,47.03
2023-01-19T20:40:16.881Z,44.90
2023-01-19T20:42:57.671Z,41.70
2023-01-19T20:48:13.342Z,44.13
2023-01-19T20:53:43.892Z,34.92
2023-01-19T20:56:20.162Z,43.10
2023-01-19T20:59:03.028Z,45.65
2023-01-19T21:01:42.380Z,42.05
2023-01-19T21:04:14.046Z,34.80
2023-01-19T21:06:46.737Z,43.88
2023-01-19T21:09:42.215Z,38.58
2023-01-19T21:12:14.402Z,46.28
2023-01-19T21:14:53.050Z,39.15
2023-01-19T21:17:23.445Z,36.10
2023-01-19T21:22:51.678Z,33.95
2023-01-19T21:25:29.483Z,38.15
2023-01-19T21:30:54.020Z,37.42
2023-01-19T21:33:34.420Z,42.20
2023-01-19T21:36:04.555Z,43.75
2023-01-19T21:38:50.780Z,47.92
2023-01-19T21:41:32.513Z,42.05
2023-01-19T21:44:04.605Z,52.00
2023-01-19T21:46:40.849Z,46.55
2023-01-19T21:49:19.884Z,48.22
2023-01-19T21:51:52.732Z,52.50
2023-01-19T21:54:24.020Z,53.20
2023-01-19T21:56:56.937Z,47.90
2023-01-19T21:59:33.400Z,53.20
2023-01-19T22:02:01.405Z,47.97
2023-01-19T22:05:10.650Z,53.90
2023-01-19T22:07:53.313Z,53.85
2023-01-19T22:10:22.999Z,50.15
2023-01-19T22:13:05.650Z,50.00
2023-01-19T22:15:43.636Z,56.10
2023-01-19T22:18:16.197Z,50.45
2023-01-19T22:20:46.743Z,50.67
2023-01-19T22:23:16.480Z,48.55
2023-01-19T22:26:05.232Z,50.40
2023-01-19T22:28:33.572Z,58.10
2023-01-19T22:31:11.292Z,57.83
2023-01-19T22:33:46.608Z,43.75
2023-01-19T22:36:34.454Z,47.28
2023-01-19T22:39:19.207Z,56.08
2023-01-19T22:41:53.805Z,61.20
2023-01-19T22:44:24.523Z,58.78
2023-01-19T22:46:58.373Z,53.67
2023-01-19T22:49:28.871Z,52.47
2023-01-19T22:51:57.835Z,50.15
2023-01-19T22:54:39.691Z,50.35
2023-01-19T22:57:14.805Z,53.70
2023-01-19T22:59:46.399Z,54.17
2023-01-19T23:02:15.048Z,51.55
2023-01-19T23:04:46.225Z,55.63
2023-01-19T23:10:11.259Z,49.40
2023-01-19T23:12:41.378Z,60.05
2023-01-19T23:15:09.981Z,48.22
2023-01-19T23:17:38.046Z,52.97
2023-01-19T23:20:07.627Z,56.47
2023-01-19T23:22:37.071Z,52.03
2023-01-19T23:25:06.348Z,60.50
2023-01-19T23:27:38.655Z,54.40
2023-01-19T23:30:09.293Z,50.08
2023-01-19T23:32:38.761Z,47.70
2023-01-19T23:35:12.008Z,50.83
2023-01-19T23:37:42.772Z,52.55
2023-01-19T23:40:17.072Z,51.78
2023-01-19T23:42:46.567Z,55.58
2023-01-19T23:45:23.426Z,53.13
2023-01-19T23:47:53.191Z,49.63
2023-01-19T23:50:33.293Z,50.57
2023-01-19T23:53:05.160Z,47.75
2023-01-19T23:55:38.687Z,51.72
2023-01-19T23:58:08.471Z,54.20
